To NAV CANADA Home Page Login to a new session Search on AWWS site Feedback and Comments Disclaimer Vers la page française équivalente Tips FAQ What's new on the site To the Forecasts and Observations / NOTAM section To "File a Flight Plan" website Publications and other links Update of the User's profile FIC Telephone Numbers My Weather Data Folder Route Weather Data Regional Weather Data Local Weather Data To the Forecasts and Observations / NOTAM section
Request Generated 02/23/2017 at 20:46:13 UTC . Weather information available at that time is displayed.

METAR/TAF

HALIFAX/STANFIELD INTL/NS    (show WxCam)

METAR CYHZ 232000Z 19012KT 15SM FEW030 FEW250 05/00 A2984 RMK CF1CI1
CI TR SLP113=
METAR CYHZ 231900Z 19011G17KT 15SM FEW250 06/00 A2986 RMK CI1 CI TR
SLP118=
METAR CYHZ 231800Z 19009G15KT 170V230 15SM SKC 05/M00 A2986 RMK
SLP119=

TAF CYHZ 232038Z 2321/2418 19012KT P6SM FEW030
FM232200 20012KT P6SM FEW005 SCT030 PROB30 2322/2323 2SM BR
BKN005
FM232300 20015KT 6SM BR FEW004 SCT060 TEMPO 2323/2401 11/2SM BR
OVC004
FM240100 21018KT 1/4SM -DZ FG VV001 TEMPO 2401/2406 1SM BR OVC004
FM240600 23015KT 1SM -DZ BR OVC004
FM241000 24012KT 3SM BR FEW004 BKN010
FM241300 24012KT P6SM SCT010
RMK NXT FCST BY 240000Z=
Your time UTC time
Weather data provided by Environment Canada and NAV CANADA